createdAt,value
2022-08-22T00:01:48.352Z,3.23
2022-08-22T00:02:44.824Z,6.00
2022-08-22T00:03:02.257Z,3.33
2022-08-22T00:04:36.267Z,3.30
2022-08-22T00:07:58.409Z,3.40
2022-08-22T00:10:48.799Z,3.40
2022-08-22T00:13:24.037Z,3.17
2022-08-22T00:16:31.645Z,3.30
2022-08-22T00:19:24.033Z,3.30
2022-08-22T00:22:20.639Z,3.10
2022-08-22T00:25:24.757Z,2.90
2022-08-22T00:28:10.005Z,3.30
2022-08-22T00:31:04.936Z,3.30
2022-08-22T00:34:09.676Z,3.10
2022-08-22T00:36:57.971Z,3.20
2022-08-22T00:39:33.928Z,3.30
2022-08-22T00:42:50.249Z,3.50
2022-08-22T00:45:59.704Z,2.90
2022-08-22T00:48:56.268Z,3.40
2022-08-22T00:51:56.375Z,3.10
2022-08-22T00:54:55.854Z,3.23
2022-08-22T00:57:49.073Z,2.87
2022-08-22T01:00:21.606Z,3.10
2022-08-22T01:03:12.885Z,3.23
2022-08-22T01:06:29.392Z,2.90
2022-08-22T01:09:44.352Z,3.20
2022-08-22T01:12:19.344Z,3.03
2022-08-22T01:14:57.660Z,3.20
2022-08-22T01:18:24.762Z,3.20
2022-08-22T01:21:37.228Z,3.17
2022-08-22T01:25:11.919Z,3.20
2022-08-22T01:27:45.002Z,3.07
2022-08-22T01:31:08.549Z,3.17
2022-08-22T01:33:59.463Z,3.30
2022-08-22T01:37:00.045Z,3.20
2022-08-22T01:39:48.136Z,3.40
2022-08-22T01:42:38.431Z,3.57
2022-08-22T01:45:14.300Z,3.43
2022-08-22T01:47:56.218Z,3.43
2022-08-22T01:50:39.593Z,3.10
2022-08-22T01:53:23.121Z,3.37
2022-08-22T01:56:16.466Z,3.10
2022-08-22T01:59:01.855Z,3.30
2022-08-22T02:01:49.876Z,3.10
2022-08-22T02:04:36.472Z,3.40
2022-08-22T02:07:53.382Z,3.40
2022-08-22T02:10:27.752Z,3.00
2022-08-22T02:13:25.020Z,3.30
2022-08-22T02:16:12.125Z,3.50
2022-08-22T02:19:04.092Z,3.30
2022-08-22T02:21:55.722Z,3.30
2022-08-22T02:24:22.480Z,3.00
2022-08-22T02:27:23.661Z,3.30
2022-08-22T02:30:25.579Z,3.50
2022-08-22T02:33:12.979Z,3.47
2022-08-22T02:36:00.089Z,3.20
2022-08-22T02:39:21.503Z,3.43
2022-08-22T02:42:06.512Z,3.20
2022-08-22T02:44:52.860Z,3.20
2022-08-22T02:47:38.167Z,3.47
2022-08-22T02:50:24.854Z,3.23
2022-08-22T02:53:01.483Z,3.40
2022-08-22T02:55:53.353Z,3.33
2022-08-22T02:58:41.969Z,3.50
2022-08-22T03:01:31.555Z,3.17
2022-08-22T03:04:32.120Z,3.20
2022-08-22T03:07:28.004Z,3.10
2022-08-22T03:10:18.334Z,3.20
2022-08-22T03:13:11.065Z,3.20
2022-08-22T03:15:52.595Z,3.10
2022-08-22T03:18:41.283Z,3.20
2022-08-22T03:22:00.894Z,3.10
2022-08-22T03:25:09.660Z,3.40
2022-08-22T03:27:50.537Z,3.13
2022-08-22T03:30:29.490Z,3.40
2022-08-22T03:33:12.644Z,3.30
2022-08-22T03:35:45.563Z,2.93
2022-08-22T03:38:27.279Z,3.50
2022-08-22T03:41:15.120Z,3.43
2022-08-22T03:44:21.990Z,3.30
2022-08-22T03:48:00.073Z,3.40
2022-08-22T03:51:13.829Z,3.00
2022-08-22T03:54:05.456Z,3.10
2022-08-22T03:57:09.472Z,2.90
2022-08-22T03:59:57.611Z,3.10
2022-08-22T04:02:43.275Z,3.17
2022-08-22T04:05:40.725Z,3.47
2022-08-22T04:08:26.310Z,3.27
2022-08-22T04:11:31.373Z,3.20
2022-08-22T04:14:47.543Z,3.23
2022-08-22T04:17:44.569Z,3.43
2022-08-22T04:21:07.622Z,3.57
2022-08-22T04:24:15.892Z,3.50
2022-08-22T04:26:52.963Z,3.20
2022-08-22T04:29:41.934Z,3.43
2022-08-22T04:32:17.526Z,3.40
2022-08-22T04:35:29.427Z,3.40
2022-08-22T04:38:09.275Z,3.53
2022-08-22T04:40:48.153Z,3.03
2022-08-22T04:43:45.085Z,3.20
2022-08-22T04:46:17.550Z,3.30
2022-08-22T04:49:07.612Z,3.43
2022-08-22T04:52:07.252Z,3.30
2022-08-22T04:54:46.173Z,3.67
2022-08-22T04:57:31.019Z,3.20
2022-08-22T05:00:03.609Z,3.77
2022-08-22T05:02:32.994Z,3.40
2022-08-22T05:05:38.498Z,3.50
2022-08-22T05:08:13.703Z,3.53
2022-08-22T05:10:47.941Z,3.60
2022-08-22T05:13:39.081Z,3.17
2022-08-22T05:16:18.944Z,3.90
2022-08-22T05:18:54.403Z,3.30
2022-08-22T05:21:31.328Z,3.20
2022-08-22T05:24:11.572Z,3.33
2022-08-22T05:26:49.841Z,3.30
2022-08-22T05:29:27.362Z,3.40
2022-08-22T05:32:05.661Z,3.40
2022-08-22T05:34:39.273Z,3.30
2022-08-22T05:37:14.190Z,3.20
2022-08-22T05:39:47.229Z,3.40
2022-08-22T05:42:27.129Z,3.17
2022-08-22T05:44:55.503Z,3.30
2022-08-22T05:47:41.496Z,3.33
2022-08-22T05:50:38.439Z,3.67
2022-08-22T05:53:29.196Z,3.70
2022-08-22T05:56:05.941Z,3.80
2022-08-22T05:58:38.670Z,3.43
2022-08-22T06:01:56.414Z,3.40
2022-08-22T06:04:58.567Z,3.77
2022-08-22T06:07:39.911Z,4.20
2022-08-22T06:10:25.742Z,3.73
2022-08-22T06:13:37.160Z,4.30
2022-08-22T06:16:48.585Z,3.97
2022-08-22T06:19:20.405Z,3.80
2022-08-22T06:21:54.307Z,3.80
2022-08-22T06:24:26.875Z,3.77
2022-08-22T06:27:06.224Z,3.80
2022-08-22T06:29:46.974Z,3.50
2022-08-22T06:32:32.619Z,3.63
2022-08-22T06:36:03.515Z,3.80
2022-08-22T06:38:53.709Z,3.50
2022-08-22T06:41:29.610Z,3.80
2022-08-22T06:43:59.048Z,4.07
2022-08-22T06:46:30.877Z,4.10
2022-08-22T06:49:04.822Z,3.87
2022-08-22T06:51:33.983Z,4.57
2022-08-22T06:54:10.090Z,3.60
2022-08-22T06:56:43.678Z,3.93
2022-08-22T06:59:23.098Z,4.10
2022-08-22T07:01:58.448Z,4.10
2022-08-22T07:04:30.468Z,4.13
2022-08-22T07:07:02.081Z,3.90
2022-08-22T07:09:36.995Z,4.33
2022-08-22T07:12:18.332Z,4.33
2022-08-22T07:14:55.467Z,3.97
2022-08-22T07:17:27.697Z,4.07
2022-08-22T07:20:05.850Z,4.13
2022-08-22T07:22:36.545Z,4.27
2022-08-22T07:25:14.692Z,3.43
2022-08-22T07:28:00.314Z,3.70
2022-08-22T07:30:59.962Z,3.73
2022-08-22T07:33:45.149Z,3.80
2022-08-22T07:36:34.378Z,3.40
2022-08-22T07:39:56.162Z,3.67
2022-08-22T07:42:46.144Z,4.40
2022-08-22T07:45:39.760Z,4.13
2022-08-22T07:49:05.919Z,4.03
2022-08-22T07:51:52.700Z,4.07
2022-08-22T07:54:34.960Z,4.07
2022-08-22T07:57:07.825Z,4.50
2022-08-22T07:59:54.287Z,4.50
2022-08-22T08:02:27.585Z,4.33
2022-08-22T08:05:02.956Z,4.17
2022-08-22T08:07:32.087Z,4.23
2022-08-22T08:10:19.263Z,4.20
2022-08-22T08:13:02.362Z,4.20
2022-08-22T08:15:34.869Z,4.10
2022-08-22T08:18:13.241Z,4.00
2022-08-22T08:20:42.721Z,3.83
2022-08-22T08:23:19.414Z,4.03
2022-08-22T08:26:07.937Z,4.00
2022-08-22T08:28:45.745Z,5.50
2022-08-22T08:31:37.957Z,4.27
2022-08-22T08:34:24.538Z,4.63
2022-08-22T08:37:01.934Z,3.80
2022-08-22T08:39:43.619Z,4.10
2022-08-22T08:42:59.433Z,3.87
2022-08-22T08:46:14.434Z,3.80
2022-08-22T08:49:25.407Z,4.37
2022-08-22T08:52:29.383Z,4.20
2022-08-22T08:55:37.222Z,4.73
2022-08-22T08:58:35.326Z,4.10
2022-08-22T09:01:37.707Z,4.57
2022-08-22T09:05:09.043Z,3.57
2022-08-22T09:07:59.014Z,3.83
2022-08-22T09:10:45.086Z,3.93
2022-08-22T09:13:47.388Z,4.47
2022-08-22T09:16:52.531Z,4.20
2022-08-22T09:19:44.039Z,4.50
2022-08-22T09:23:02.310Z,4.57
2022-08-22T09:25:40.524Z,4.30
2022-08-22T09:28:36.248Z,4.33
2022-08-22T09:31:44.908Z,4.33
2022-08-22T09:34:23.990Z,4.30
2022-08-22T09:37:09.018Z,4.37
2022-08-22T09:39:50.290Z,3.90
2022-08-22T09:42:47.657Z,4.70
2022-08-22T09:45:40.294Z,4.57
2022-08-22T09:48:48.565Z,4.00
2022-08-22T09:52:05.134Z,3.93
2022-08-22T09:54:53.903Z,4.33
2022-08-22T09:57:51.005Z,4.60
2022-08-22T10:00:45.088Z,4.20
2022-08-22T10:03:45.141Z,3.90
2022-08-22T10:06:26.895Z,3.93
2022-08-22T10:09:08.823Z,4.10
2022-08-22T10:11:42.392Z,4.10
2022-08-22T10:14:15.590Z,4.30
2022-08-22T10:17:22.163Z,3.97
2022-08-22T10:20:15.536Z,4.30
2022-08-22T10:23:22.443Z,3.90
2022-08-22T10:26:22.884Z,4.70
2022-08-22T10:29:05.596Z,4.73
2022-08-22T10:32:14.438Z,3.90
2022-08-22T10:34:49.918Z,4.23
2022-08-22T10:37:26.311Z,4.37
2022-08-22T10:40:16.047Z,4.33
2022-08-22T10:43:09.595Z,3.83
2022-08-22T10:45:45.229Z,4.00
2022-08-22T10:48:13.078Z,3.90
2022-08-22T10:50:52.661Z,4.20
2022-08-22T10:53:37.274Z,4.17
2022-08-22T10:56:14.441Z,3.90
2022-08-22T10:59:45.129Z,3.53
2022-08-22T11:02:42.326Z,4.20
2022-08-22T11:05:24.062Z,4.40
2022-08-22T11:08:34.701Z,3.53
2022-08-22T11:11:01.709Z,4.13
2022-08-22T11:13:42.358Z,4.20
2022-08-22T11:16:26.318Z,4.07
2022-08-22T11:19:16.031Z,4.17
2022-08-22T11:21:57.338Z,3.43
2022-08-22T11:25:35.667Z,3.90
2022-08-22T11:28:29.874Z,3.93
2022-08-22T11:31:09.257Z,3.80
2022-08-22T11:34:03.051Z,3.80
2022-08-22T11:37:23.940Z,4.70
2022-08-22T11:40:58.210Z,4.23
2022-08-22T11:44:03.699Z,3.77
2022-08-22T11:46:42.931Z,4.50
2022-08-22T11:49:55.661Z,3.67
2022-08-22T11:52:58.066Z,3.70
2022-08-22T11:55:37.108Z,3.83
2022-08-22T11:58:49.629Z,3.60
2022-08-22T12:01:25.888Z,4.73
2022-08-22T12:04:20.449Z,4.60
2022-08-22T12:07:02.188Z,5.03
2022-08-22T12:09:50.762Z,4.23
2022-08-22T12:13:07.478Z,4.85
2022-08-22T12:15:55.101Z,5.15
2022-08-22T12:19:00.736Z,4.25
2022-08-22T12:21:50.866Z,3.97
2022-08-22T12:25:04.514Z,4.97
2022-08-22T12:27:41.006Z,4.18
2022-08-22T12:30:40.865Z,4.45
2022-08-22T12:33:40.923Z,3.95
2022-08-22T12:37:01.744Z,4.70
2022-08-22T12:40:08.948Z,3.65
2022-08-22T12:42:48.893Z,3.85
2022-08-22T12:45:34.384Z,3.60
2022-08-22T12:48:47.689Z,4.50
2022-08-22T12:51:32.681Z,3.88
2022-08-22T12:54:45.925Z,4.05
2022-08-22T12:57:45.191Z,4.32
2022-08-22T13:00:35.152Z,3.97
2022-08-22T13:03:32.328Z,3.90
2022-08-22T13:06:24.763Z,3.70
2022-08-22T13:08:54.055Z,3.75
2022-08-22T13:11:23.861Z,3.97
2022-08-22T13:14:02.389Z,3.63
2022-08-22T13:16:55.051Z,3.95
2022-08-22T13:19:32.509Z,3.58
2022-08-22T13:22:22.353Z,4.00
2022-08-22T13:25:04.873Z,3.90
2022-08-22T13:27:51.589Z,4.28
2022-08-22T13:30:30.177Z,3.90
2022-08-22T13:33:49.892Z,4.60
2022-08-22T13:36:26.784Z,4.30
2022-08-22T13:39:27.640Z,4.35
2022-08-22T13:42:00.845Z,4.32
2022-08-22T13:44:48.015Z,4.70
2022-08-22T13:47:23.144Z,4.63
2022-08-22T13:50:17.293Z,5.28
2022-08-22T13:52:55.189Z,4.30
2022-08-22T13:55:52.060Z,4.22
2022-08-22T13:58:28.510Z,4.60
2022-08-22T14:01:15.911Z,4.57
2022-08-22T14:04:17.544Z,4.65
2022-08-22T14:07:47.008Z,4.32
2022-08-22T14:10:28.040Z,4.43
2022-08-22T14:12:57.828Z,4.93
2022-08-22T14:15:45.006Z,4.20
2022-08-22T14:18:30.276Z,3.92
2022-08-22T14:21:40.859Z,4.65
2022-08-22T14:24:27.200Z,4.22
2022-08-22T14:27:08.616Z,4.43
2022-08-22T14:29:58.593Z,4.40
2022-08-22T14:32:29.755Z,4.38
2022-08-22T14:35:33.632Z,4.78
2022-08-22T14:38:38.856Z,3.80
2022-08-22T14:41:56.403Z,4.20
2022-08-22T14:45:09.870Z,4.30
2022-08-22T14:47:55.173Z,4.40
2022-08-22T14:50:56.649Z,3.90
2022-08-22T14:53:34.693Z,4.20
2022-08-22T14:56:15.731Z,4.05
2022-08-22T14:58:53.932Z,4.65
2022-08-22T15:01:26.251Z,4.07
2022-08-22T15:04:18.831Z,4.63
2022-08-22T15:06:58.952Z,4.47
2022-08-22T15:09:53.081Z,4.20
2022-08-22T15:12:46.851Z,3.88
2022-08-22T15:15:53.300Z,4.75
2022-08-22T15:18:27.934Z,4.22
2022-08-22T15:21:11.470Z,4.07
2022-08-22T15:23:47.008Z,3.83
2022-08-22T15:26:51.201Z,3.90
2022-08-22T15:29:29.049Z,4.15
2022-08-22T15:32:02.369Z,4.20
2022-08-22T15:34:47.560Z,3.70
2022-08-22T15:37:19.426Z,4.07
2022-08-22T15:40:12.070Z,3.70
2022-08-22T15:42:54.029Z,3.72
2022-08-22T15:45:37.792Z,3.63
2022-08-22T15:48:31.071Z,3.67
2022-08-22T15:51:09.398Z,3.90
2022-08-22T15:53:45.311Z,3.88
2022-08-22T15:56:12.052Z,3.55
2022-08-22T15:58:48.559Z,3.67
2022-08-22T16:01:26.406Z,3.50
2022-08-22T16:04:14.693Z,3.90
2022-08-22T16:06:52.619Z,3.47
2022-08-22T16:09:44.551Z,3.70
2022-08-22T16:12:35.333Z,4.07
2022-08-22T16:15:26.255Z,5.55
2022-08-22T16:17:53.412Z,4.22
2022-08-22T16:20:20.416Z,3.70
2022-08-22T16:22:59.081Z,3.60
2022-08-22T16:25:44.644Z,3.72
2022-08-22T16:28:56.786Z,3.70
2022-08-22T16:31:42.883Z,3.42
2022-08-22T16:34:24.480Z,3.20
2022-08-22T16:37:23.199Z,3.53
2022-08-22T16:40:01.647Z,4.00
2022-08-22T16:42:40.572Z,3.85
2022-08-22T16:45:17.012Z,4.13
2022-08-22T16:47:58.675Z,4.53
2022-08-22T16:50:37.393Z,4.50
2022-08-22T16:53:33.200Z,4.30
2022-08-22T16:56:39.412Z,4.40
2022-08-22T16:59:56.439Z,3.37
2022-08-22T17:02:50.467Z,3.50
2022-08-22T17:05:37.750Z,3.70
2022-08-22T17:08:36.531Z,3.40
2022-08-22T17:11:10.048Z,3.93
2022-08-22T17:14:05.430Z,3.77
2022-08-22T17:16:54.242Z,3.93
2022-08-22T17:19:40.535Z,4.20
2022-08-22T17:22:29.234Z,3.97
2022-08-22T17:25:32.792Z,3.80
2022-08-22T17:28:39.513Z,3.20
2022-08-22T17:31:21.910Z,3.13
2022-08-22T17:34:34.762Z,3.63
2022-08-22T17:37:07.074Z,3.50
2022-08-22T17:40:11.742Z,3.60
2022-08-22T17:42:55.373Z,3.50
2022-08-22T17:45:59.344Z,3.67
2022-08-22T17:48:39.511Z,3.33
2022-08-22T17:51:28.970Z,3.63
2022-08-22T17:54:21.172Z,3.57
2022-08-22T17:57:25.224Z,3.23
2022-08-22T18:00:15.983Z,3.20
2022-08-22T18:02:48.286Z,3.50
2022-08-22T18:05:25.465Z,4.57
2022-08-22T18:07:56.253Z,3.73
2022-08-22T18:10:39.496Z,4.10
2022-08-22T18:13:11.312Z,3.87
2022-08-22T18:15:57.787Z,3.70
2022-08-22T18:18:48.632Z,4.00
2022-08-22T18:22:04.640Z,3.90
2022-08-22T18:24:52.426Z,3.63
2022-08-22T18:27:49.356Z,3.93
2022-08-22T18:31:04.435Z,3.60
2022-08-22T18:33:38.166Z,3.50
2022-08-22T18:36:27.242Z,4.10
2022-08-22T18:39:13.534Z,4.00
2022-08-22T18:41:50.593Z,3.93
2022-08-22T18:44:34.478Z,3.97
2022-08-22T18:47:39.972Z,3.60
2022-08-22T18:50:34.521Z,4.27
2022-08-22T18:53:02.343Z,4.47
2022-08-22T18:56:06.943Z,4.53
2022-08-22T18:59:01.947Z,4.30
2022-08-22T19:02:03.385Z,4.37
2022-08-22T19:04:55.742Z,3.80
2022-08-22T19:07:48.195Z,4.70
2022-08-22T19:10:38.460Z,3.90
2022-08-22T19:13:34.483Z,3.43
2022-08-22T19:16:38.204Z,4.00
2022-08-22T19:19:57.965Z,3.73
2022-08-22T19:22:34.417Z,3.80
2022-08-22T19:25:14.178Z,3.73
2022-08-22T19:28:06.386Z,3.30
2022-08-22T19:30:47.323Z,3.53
2022-08-22T19:33:34.573Z,3.50
2022-08-22T19:36:30.386Z,3.97
2022-08-22T19:39:43.970Z,4.13
2022-08-22T19:42:21.114Z,3.70
2022-08-22T19:44:53.455Z,3.73
2022-08-22T19:47:29.507Z,3.53
2022-08-22T19:50:10.113Z,3.90
2022-08-22T19:53:32.999Z,3.83
2022-08-22T19:56:12.680Z,3.53
2022-08-22T19:59:07.093Z,3.93
2022-08-22T20:02:13.534Z,3.70
2022-08-22T20:04:53.772Z,3.50
2022-08-22T20:08:05.357Z,3.40
2022-08-22T20:11:16.488Z,3.50
2022-08-22T20:13:48.089Z,3.77
2022-08-22T20:16:21.608Z,3.43
2022-08-22T20:19:09.354Z,3.40
2022-08-22T20:21:49.258Z,3.40
2022-08-22T20:24:40.207Z,3.70
2022-08-22T20:27:26.803Z,3.40
2022-08-22T20:30:02.650Z,3.57
2022-08-22T20:32:32.533Z,3.40
2022-08-22T20:35:03.441Z,3.37
2022-08-22T20:38:05.376Z,3.47
2022-08-22T20:40:56.458Z,3.60
2022-08-22T20:43:38.501Z,3.93
2022-08-22T20:46:53.187Z,3.07
2022-08-22T20:49:35.945Z,3.33
2022-08-22T20:52:32.782Z,3.70
2022-08-22T20:55:21.194Z,3.13
2022-08-22T20:57:57.872Z,3.53
2022-08-22T21:00:42.140Z,3.53
2022-08-22T21:03:16.752Z,3.40
2022-08-22T21:05:46.188Z,3.07
2022-08-22T21:08:27.186Z,3.23
2022-08-22T21:11:19.893Z,3.10
2022-08-22T21:13:47.423Z,3.50
2022-08-22T21:16:31.444Z,3.50
2022-08-22T21:19:04.732Z,3.50
2022-08-22T21:21:35.806Z,3.40
2022-08-22T21:24:09.363Z,3.63
2022-08-22T21:27:02.454Z,3.70
2022-08-22T21:29:43.327Z,3.30
2022-08-22T21:32:34.008Z,3.30
2022-08-22T21:35:04.288Z,3.50
2022-08-22T21:37:45.532Z,3.83
2022-08-22T21:40:21.505Z,3.60
2022-08-22T21:43:13.592Z,3.37
2022-08-22T21:45:44.424Z,3.47
2022-08-22T21:48:43.669Z,3.30
2022-08-22T21:51:42.037Z,3.50
2022-08-22T21:54:31.664Z,3.43
2022-08-22T21:57:33.619Z,3.30
2022-08-22T22:00:11.020Z,3.30
2022-08-22T22:02:41.696Z,3.50
2022-08-22T22:05:15.810Z,3.33
2022-08-22T22:07:46.256Z,3.27
2022-08-22T22:10:18.612Z,3.70
2022-08-22T22:12:48.823Z,3.20
2022-08-22T22:15:21.099Z,3.20
2022-08-22T22:17:48.901Z,3.80
2022-08-22T22:20:22.119Z,3.60
2022-08-22T22:22:52.636Z,3.50
2022-08-22T22:25:39.766Z,3.33
2022-08-22T22:28:36.903Z,3.63
2022-08-22T22:31:05.070Z,3.17
2022-08-22T22:33:41.043Z,3.17
2022-08-22T22:36:19.972Z,3.73
2022-08-22T22:38:48.767Z,3.20
2022-08-22T22:41:21.221Z,3.10
2022-08-22T22:43:50.082Z,3.10
2022-08-22T22:46:16.868Z,3.53
2022-08-22T22:48:43.959Z,3.33
2022-08-22T22:51:13.102Z,3.60
2022-08-22T22:53:43.898Z,3.40
2022-08-22T22:56:21.472Z,3.30
2022-08-22T22:58:50.397Z,3.27
2022-08-22T23:01:27.168Z,3.20
2022-08-22T23:04:05.875Z,3.20
2022-08-22T23:06:35.247Z,3.33
2022-08-22T23:09:04.307Z,3.30
2022-08-22T23:11:31.622Z,3.10
2022-08-22T23:13:58.423Z,3.10
2022-08-22T23:16:28.655Z,3.23
2022-08-22T23:18:56.717Z,3.83
2022-08-22T23:21:29.123Z,3.50
2022-08-22T23:24:02.105Z,3.37
2022-08-22T23:26:32.805Z,3.17
2022-08-22T23:29:00.269Z,3.40
2022-08-22T23:31:43.896Z,3.20
2022-08-22T23:34:22.731Z,3.37
2022-08-22T23:36:55.043Z,3.37
2022-08-22T23:39:37.344Z,3.60
2022-08-22T23:42:06.285Z,3.40
2022-08-22T23:44:36.058Z,3.27
2022-08-22T23:47:08.457Z,3.43
2022-08-22T23:49:37.818Z,3.50
2022-08-22T23:52:10.138Z,3.20
2022-08-22T23:54:37.389Z,3.30
2022-08-22T23:57:11.997Z,3.50
2022-08-22T23:59:47.981Z,3.60
